Red Oak, IA

5:50 AM CST on March 06, 2015 (GMT -0600)
NFS-1351 210th St | Change Station
CLOSE
Current Station
Personal Weather Station
Location: Red Oak, IA
Elevation: 1083 ft
Nearby Weather Stations

Elev 1083 ft 41.00 °N, 95.32 °W | Updated 6 minutes ago

Partly Cloudy
Partly Cloudy
22.3 °F
Feels Like 12 °F
N
10.0
Wind Variable Wind from South

Today
High -- | Low -- °F
--% Chance of Precip.
Yesterday
High -- | Low -- °F
Precip. -- in
6:47 AM 6:17 PM
Full, 100% visible
Pressure 30.21 in
Visibility 10.0 miles
Clouds Few 17000 ft
Windchill 12 °F
Dew Point 17 °F
Humidity 80%
Rainfall 0.00 in
Snow Depth Not available.
UV 0 out of 12
Pollen 1.20 out of 12
Air Quality Not available.
Flu Activity Not available.
METAR KRDK 061115Z AUTO 20008KT 10SM FEW170 M06/M09 A3021 RMK AO2

More Conditions Fewer Conditions

Pressure 30.21 in
Visibility 10.0 miles
Clouds Few 17000 ft
Windchill 12 °F
Dew Point 17 °F
Humidity 80%
Rainfall 0.00 in
Snow Depth Not available.
UV 0 out of 12
Pollen 1.20 out of 12
Air Quality Not available.
Flu Activity Not available.
METAR KRDK 061115Z AUTO 20008KT 10SM FEW170 M06/M09 A3021 RMK AO2

More Conditions Fewer Conditions

10-Day Weather Forecast

Almanac

Astronomy

Mar. 06, 2015 Rise Set
Actual Time
Civil Twilight
Nautical Twilight
Astronomical Twilight
Moon
Length of Visible Light
Length of Day
Tomorrow will be .
, % of the Moon is Illuminated

Today's Extremes

State Highs State Lows

Community

WunderPhotos

Upload Photos

1,803,228 photos uploaded!

WunderBlogs® & News

Nearby

Air Quality

  Air Quality AQ Index Pollutant
Not available.

Snow Depth

Station Depth Elevation

Earthquake Activity

City Distance Mag. Time & Date
Minimum magnitude displayed is 2.5.

Coastal Water Temperatures

Place Temperature

Nearby Weather Stations